Airfield :
LOGIN :

Register | Disclaimer

   EN    FR    IT 

 










Legend :    VFR   Marginal VFR   IFR   Intensive IFR   Very Intensive IFR
Visi :
Ceiling :
>= 8 km
>= 3000ft
5 to 8 km
1000 to 3000 ft
1500m to 5 km
500 to 1000 ft
800 to 1500m
200 to 500 ft
< 800m
< 200 ft
Symbols :   Thunderstorms  Fog  Heavy snow  Heavy precipitations  Wind > 20 kt
SIGMETs :     Misc.  Thunderstorms  Icing  Turbulence  Mountain Waves  Volcanic Ashes







- Airport Elevation : 375 ft
- IATA code : MST


EHBK - Maastricht Aachen

CURRENT METAR :
  • 201625Z AUTO 09003KT 9999 -DZ FEW010 BKN012 BKN014 02/01 Q0998 TEMPO 7000 BKN009

EXPIRED METARs :
  • 201555Z AUTO 10004KT 9999 -DZ SCT009 BKN014 OVC020 02/01 Q0998 REDZ TEMPO 7000 BKN009
  • 201525Z AUTO 13004KT 100V160 9999 -RA SCT017 BKN021 OVC024 01/01 Q0999 TEMPO 7000 BKN010
  • 201455Z AUTO 17004KT 110V200 9000 -SHRA FEW005 BKN007 BKN008 02/01 Q0999 TEMPO 7000 BKN010
  • 201425Z AUTO 16005KT 8000 -SHRA FEW006 BKN010 BKN014 02/01 Q0999 NOSIG
  • 201355Z AUTO 17006KT 140V200 9000 -RA FEW007 SCT009 OVC023 02/01 Q1000 NOSIG
  • 201325Z AUTO 16007KT 130V190 7000 -RA FEW004 BKN005 BKN007 02/01 Q1000 NOSIG

TAF TAF EHBK
Valid from the 20 at 12:00 until the 21 at 18:00 UTC


201105Z 2012/2118 18008KT 8000 -RA BKN012
TEMPO 2012/2022 5000 BKN008
PROB40 2012/2022 3000 RASN BKN004
PROB30
TEMPO 2017/2022 1200 SNRA BKN002
BECMG 2019/2022 32004KT 2000 BR BKN003
PROB30
TEMPO 2022/2103 1400 SHSNRAGS BKN003 SCT015CB
BECMG 2103/2106 4000 FEW005 SCT020
BECMG 2108/2110 9999 NSW
No reported NOTAMs for that airfield.



MET'MAP, your aeronautical weather chart ! - Copyright ORBIFLY December 2007 - Disclaimer

ORBIFLY MET'MAP TEAM :

Programming & Development : Alexandra Zaïnal
Concept & Development : Baudouin d'Aumeries
Co-Development & Prog : Marc-Olivier Méhu
Technical & hardware support : Manuel Goepfert

Contact : metmap@orbifly.com




SOURCES & CREDITS :

   NOAA